x

Mount Louis (45138) Wave Buoy

1:00pm - Sun 28th Aug 2016 All times are UTC.

  • Sig Wave height 0.7ft
  • Peak Period 3s
  • Wind
    2mph
  • Sea Temp 56°f
  • Air Temp 59°f
  • Sea Pressure 1024.3mb

More Historic Weather Station data

Upgrade to MSW Pro to gain access to the past 30 days of data for over 8000 Wavebouys and Weather Stations around the globe.

Join Pro

Comparision Forecast

View Surf forecast
   
Sun 08/28 1:00pm 0.7ft 3s 2
mph
1024.3mb 56f 59f
12:00pm 1ft 3s  -  2 mph 1024.8mb 55f 59f
11:00am 1ft 3s 7 9 mph 1024.7mb 55f 58f
10:00am 1.3ft 3s 9
mph
1024.6mb 55f 58f
9:00am 1.3ft 3s 9 11 mph 1024.2mb 55f 58f
8:00am 1.3ft 3s 11 13 mph 1024.3mb 55f 58f
7:00am 1.6ft 3s 11 13 mph 1024.3mb 55f 58f
6:00am 2ft 4s 11
mph
1024.2mb 55f 58f
5:00am 2ft 4s 11 13 mph 1024.1mb 55f 57f
4:00am 1.6ft 4s 13
mph
1024mb 55f 58f
3:00am 1.6ft 4s 13 16 mph 1023.8mb 55f 58f
2:00am 1.6ft 4s 13
mph
1023.7mb 55f 57f
1:00am 1.6ft 4s 11 13 mph 1023.4mb 55f 58f
12:00am 1.3ft 3s 16 18 mph 1023.2mb 55f 58f
Sat 08/27 11:00pm 1ft 3s 13 18 mph 1022.9mb 56f 58f
10:00pm 1ft 3s 13 16 mph 1022.6mb 56f 59f
9:00pm 1ft 2s 13 16 mph 1022.7mb 57f 59f
8:00pm 1ft 3s 13 16 mph 1022.6mb 57f 59f
7:00pm 1ft 4s 13 16 mph 1022.5mb 56f 58f
6:00pm 1.3ft 3s 9 11 mph 1022.4mb 56f 58f
5:00pm 1.3ft 3s 9 11 mph 1022.2mb 56f 58f
4:00pm 1.3ft 4s 4 7 mph 1022mb 56f 58f
3:00pm 1.3ft 4s 9
mph
1021.7mb 55f 58f
2:00pm 1.3ft 4s 9 11 mph 1021.5mb 55f 57f
1:00pm 1.6ft 4s 7 9 mph 1020.6mb 55f 57f
12:00pm 1.6ft 4s 9
mph
1019.6mb 55f 57f
11:00am 1.3ft 3s 16 18 mph 1018.3mb 55f 57f
10:00am 1ft 3s 11 13 mph 1017.2mb 55f 57f
9:00am 1ft 5s 9 11 mph 1015.7mb 54f 57f
8:00am 1ft 3s 11
mph
1014.4mb 54f 56f
7:00am 1ft 6s 11 13 mph 1013.8mb 54f 56f
6:00am 1ft 2s 9 11 mph 1013.2mb 54f 55f
5:00am 1ft 6s 9
mph
1012.6mb 54f 55f
4:00am 1ft 7s 9 11 mph 1012.2mb 55f 55f
3:00am 1ft 7s 9 11 mph 1011.8mb 55f 55f
2:00am 0.7ft 7s 11 13 mph 1011mb 55f 56f
1:00am 0.7ft 5s 2 4 mph 1010.6mb 55f 56f
12:00am 0.7ft 5s  -  2 mph 1009.7mb 55f 56f
Fri 08/26 11:00pm 0.7ft 5s 4 7 mph 1009.1mb 55f 57f
10:00pm 1ft 6s 4 7 mph 1008mb 56f 58f
7:00pm 1ft 6s 4
mph
1008.2mb 56f 56f
6:00pm 1.3ft 6s 7 9 mph 1008.1mb 55f 57f
5:00pm 1.3ft 7s 9 11 mph 1008mb 56f 57f
4:00pm 1.3ft 7s 2 4 mph 1008.7mb 56f 58f
3:00pm 1.3ft 6s 4 7 mph 1009mb 55f 57f
2:00pm 1.3ft 5s 4 7 mph 1009.3mb 55f 57f
1:00pm 1.3ft 5s 4
mph
1009.3mb 54f 58f
12:00pm 1.3ft 5s 4
mph
1009.3mb 54f 56f
11:00am 1.3ft 5s 4
mph
1009.4mb 53f 56f
10:00am 1.3ft 5s 4 7 mph 1009.7mb 54f 56f
9:00am 1.3ft 5s 9 11 mph 1009.2mb 53f 56f
8:00am 1.6ft 5s 9
mph
1008.9mb 54f 55f
7:00am 2ft 5s 9
mph
1008.3mb 54f 55f
6:00am 2.5ft 5s 11 13 mph 1008.1mb 53f 55f
5:00am 2.5ft 5s 9
mph
1008.1mb 53f 56f
4:00am 2.5ft 5s 13 16 mph 1007.8mb 54f 58f
3:00am 3ft 5s 16 18 mph 1007.6mb 53f 58f
2:00am 3.5ft 5s 18 20 mph 1007.6mb 53f 58f
1:00am 3.5ft 5s 18 20 mph 1007.6mb 53f 58f
12:00am 3ft 4s 20 25 mph 1007mb 54f 59f
Thu 08/25 11:00pm 2.5ft 5s 20 22 mph 1006.4mb 54f 58f
10:00pm 2.5ft 4s 18 22 mph 1006.4mb 54f 57f
9:00pm 2.5ft 4s 20 22 mph 1006.4mb 53f 58f
8:00pm 1.3ft 5s 20 25 mph 1006.2mb 54f 60f
7:00pm 1.6ft 4s 11 16 mph 1006.3mb 54f 59f
6:00pm 2ft 4s 13 16 mph 1006.3mb 54f 59f
5:00pm 2ft 5s 11 13 mph 1006.7mb 54f 58f
4:00pm 2ft 4s 11 13 mph 1006.9mb 54f 59f
3:00pm 2.5ft 5s 11 16 mph 1007.1mb 53f 60f
2:00pm 2.5ft 5s 9 11 mph 1007.5mb 53f 56f
1:00pm 2.5ft 5s 9
mph
1007.9mb 54f 57f
12:00pm 2.5ft 6s 9
mph
1008.3mb 54f 57f
11:00am 2.5ft 4s 11 13 mph 1009.2mb 54f 56f
10:00am 2ft 4s 11 13 mph 1009.2mb 54f 57f
9:00am 1.3ft 4s 13
mph
1009.4mb 54f 57f
8:00am 1ft 4s 9 11 mph 1009.7mb 54f 57f
7:00am 1ft 4s 9
mph
1009.8mb 54f 56f
6:00am 1ft 4s 7 9 mph 1010.4mb 54f 56f
5:00am 1.3ft 4s 7
mph
1010.9mb 54f 57f
4:00am 1.3ft 4s 7 9 mph 1011.1mb 54f 58f
3:00am 1.6ft 4s 16 18 mph 1011.2mb 54f 62f
2:00am 1.6ft 4s 4
mph
1011.9mb 55f 57f
1:00am 1.6ft 4s 7
mph
1012.2mb 55f 56f
12:00am 2.5ft 4s 9
mph
1012.2mb 55f 58f
Wed 08/24 11:00pm 2.5ft 5s 9 11 mph 1012.6mb 56f 58f
10:00pm 3ft 5s 16 18 mph 1012.3mb 55f 57f
9:00pm 2.5ft 5s 13 16 mph 1012mb 55f 58f
8:00pm 3ft 5s 11 13 mph 1013.1mb 55f 58f
7:00pm 3ft 5s 16 20 mph 1013.4mb 55f 58f
6:00pm 4ft 5s 18 20 mph 1014.1mb 55f 58f
5:00pm 3.5ft 5s 18 22 mph 1014.5mb 55f 58f
4:00pm 3.5ft 5s 18 22 mph 1014.6mb 55f 57f
3:00pm 3.5ft 5s 20 25 mph 1014.9mb 55f 57f